createdAt,value
2023-03-18T00:01:10.700Z,4.10
2023-03-18T00:03:39.076Z,4.33
2023-03-18T00:06:09.034Z,4.07
2023-03-18T00:08:39.398Z,4.73
2023-03-18T00:11:07.895Z,4.10
2023-03-18T00:13:37.481Z,4.00
2023-03-18T00:16:06.796Z,3.90
2023-03-18T00:18:36.631Z,4.13
2023-03-18T00:21:04.999Z,3.83
2023-03-18T00:23:34.037Z,4.03
2023-03-18T00:26:02.592Z,5.10
2023-03-18T00:28:32.648Z,4.90
2023-03-18T00:31:08.544Z,4.93
2023-03-18T00:33:38.021Z,4.37
2023-03-18T00:36:06.829Z,3.77
2023-03-18T00:38:35.885Z,4.90
2023-03-18T00:41:11.229Z,3.80
2023-03-18T00:43:46.030Z,4.33
2023-03-18T00:46:17.878Z,4.10
2023-03-18T00:48:46.449Z,4.40
2023-03-18T00:51:17.290Z,3.83
2023-03-18T00:53:47.831Z,5.67
2023-03-18T00:56:16.916Z,4.30
2023-03-18T00:58:45.293Z,4.07
2023-03-18T01:01:13.928Z,3.50
2023-03-18T01:03:44.027Z,3.73
2023-03-18T01:06:12.944Z,4.00
2023-03-18T01:08:42.399Z,4.10
2023-03-18T01:11:11.025Z,4.23
2023-03-18T01:13:40.503Z,4.00
2023-03-18T01:16:10.075Z,4.03
2023-03-18T01:18:38.595Z,3.77
2023-03-18T01:21:08.687Z,4.50
2023-03-18T01:23:37.534Z,3.90
2023-03-18T01:26:06.048Z,4.37
2023-03-18T01:28:34.555Z,4.10
2023-03-18T01:31:02.738Z,3.57
2023-03-18T01:33:31.150Z,3.97
2023-03-18T01:36:02.296Z,4.00
2023-03-18T01:38:32.090Z,4.00
2023-03-18T01:41:00.807Z,3.80
2023-03-18T01:43:30.548Z,3.73
2023-03-18T01:46:00.657Z,4.10
2023-03-18T01:48:31.793Z,3.30
2023-03-18T01:51:01.202Z,3.37
2023-03-18T01:53:31.115Z,4.30
2023-03-18T01:56:01.453Z,3.20
2023-03-18T01:58:32.155Z,3.17
2023-03-18T02:01:05.339Z,3.53
2023-03-18T02:03:34.323Z,3.97
2023-03-18T02:06:03.159Z,3.00
2023-03-18T02:08:31.519Z,3.33
2023-03-18T02:11:01.262Z,2.90
2023-03-18T02:13:29.561Z,3.50
2023-03-18T02:16:00.493Z,4.57
2023-03-18T02:18:30.899Z,3.33
2023-03-18T02:21:08.405Z,3.33
2023-03-18T02:23:41.622Z,4.90
2023-03-18T02:26:13.762Z,3.70
2023-03-18T02:28:44.795Z,3.03
2023-03-18T02:31:13.767Z,3.00
2023-03-18T02:33:42.959Z,3.80
2023-03-18T02:36:13.676Z,3.47
2023-03-18T02:38:45.586Z,3.23
2023-03-18T02:41:18.106Z,3.27
2023-03-18T02:43:48.248Z,3.57
2023-03-18T02:46:25.629Z,3.87
2023-03-18T02:48:55.017Z,4.70
2023-03-18T02:51:23.230Z,3.57
2023-03-18T02:53:51.655Z,3.80
2023-03-18T02:56:19.913Z,3.07
2023-03-18T02:58:51.644Z,4.30
2023-03-18T03:01:20.740Z,3.80
2023-03-18T03:03:48.994Z,5.10
2023-03-18T03:06:17.468Z,3.20
2023-03-18T03:08:45.849Z,4.47
2023-03-18T03:11:14.120Z,3.97
2023-03-18T03:13:42.774Z,3.97
2023-03-18T03:16:13.104Z,4.30
2023-03-18T03:18:42.094Z,3.93
2023-03-18T03:21:10.581Z,4.10
2023-03-18T03:23:39.245Z,3.03
2023-03-18T03:26:07.814Z,3.60
2023-03-18T03:28:36.345Z,3.60
2023-03-18T03:31:04.987Z,3.50
2023-03-18T03:33:34.645Z,3.30
2023-03-18T03:36:03.018Z,3.47
2023-03-18T03:38:31.233Z,3.80
2023-03-18T03:40:59.482Z,3.47
2023-03-18T03:43:27.754Z,3.90
2023-03-18T03:45:55.975Z,3.60
2023-03-18T03:48:24.174Z,3.17
2023-03-18T03:50:53.795Z,3.67
2023-03-18T03:53:22.523Z,3.40
2023-03-18T03:55:50.752Z,3.87
2023-03-18T03:58:19.034Z,4.10
2023-03-18T04:00:47.251Z,3.43
2023-03-18T04:03:15.591Z,3.53
2023-03-18T04:05:43.877Z,4.30
2023-03-18T04:08:13.387Z,3.83
2023-03-18T04:10:41.649Z,3.40
2023-03-18T04:13:10.213Z,3.50
2023-03-18T04:15:38.777Z,4.37
2023-03-18T04:18:07.694Z,4.00
2023-03-18T04:20:36.622Z,3.70
2023-03-18T04:23:04.921Z,3.77
2023-03-18T04:25:35.341Z,4.20
2023-03-18T04:28:03.920Z,3.73
2023-03-18T04:30:32.428Z,4.23
2023-03-18T04:33:01.946Z,4.10
2023-03-18T04:35:30.311Z,4.13
2023-03-18T04:37:58.890Z,3.80
2023-03-18T04:40:27.236Z,3.93
2023-03-18T04:42:56.801Z,4.17
2023-03-18T04:45:25.093Z,4.20
2023-03-18T04:47:53.562Z,4.10
2023-03-18T04:50:22.226Z,4.10
2023-03-18T04:52:51.819Z,4.00
2023-03-18T04:55:21.229Z,4.40
2023-03-18T04:57:50.573Z,4.30
2023-03-18T05:00:24.213Z,4.70
2023-03-18T05:02:52.489Z,4.13
2023-03-18T05:05:21.174Z,4.90
2023-03-18T05:07:49.461Z,4.43
2023-03-18T05:10:19.182Z,3.93
2023-03-18T05:12:48.519Z,5.30
2023-03-18T05:15:16.796Z,4.40
2023-03-18T05:17:46.371Z,4.37
2023-03-18T05:20:15.451Z,3.40
2023-03-18T05:22:43.886Z,4.70
2023-03-18T05:25:12.732Z,4.40
2023-03-18T05:27:41.852Z,4.83
2023-03-18T05:30:11.120Z,5.50
2023-03-18T05:32:40.506Z,3.97
2023-03-18T05:35:10.664Z,4.20
2023-03-18T05:37:38.923Z,4.10
2023-03-18T05:40:09.920Z,3.90
2023-03-18T05:42:49.336Z,4.77
2023-03-18T05:45:21.819Z,4.73
2023-03-18T05:47:50.096Z,4.30
2023-03-18T05:50:30.029Z,4.43
2023-03-18T05:52:58.295Z,4.17
2023-03-18T05:55:28.289Z,4.70
2023-03-18T05:57:56.764Z,5.13
2023-03-18T06:00:25.699Z,4.47
2023-03-18T06:02:54.012Z,4.70
2023-03-18T06:05:24.343Z,4.33
2023-03-18T06:07:53.960Z,4.67
2023-03-18T06:10:23.641Z,5.20
2023-03-18T06:12:52.571Z,5.47
2023-03-18T06:15:21.241Z,5.10
2023-03-18T06:17:49.760Z,4.70
2023-03-18T06:20:19.519Z,5.40
2023-03-18T06:22:50.156Z,5.43
2023-03-18T06:25:20.731Z,5.53
2023-03-18T06:27:49.057Z,4.80
2023-03-18T06:30:17.924Z,5.13
2023-03-18T06:32:46.233Z,5.40
2023-03-18T06:35:15.482Z,4.97
2023-03-18T06:37:44.046Z,6.17
2023-03-18T06:40:14.001Z,6.20
2023-03-18T06:42:42.227Z,5.27
2023-03-18T06:45:10.798Z,5.27
2023-03-18T06:47:39.427Z,5.30
2023-03-18T06:50:07.823Z,5.40
2023-03-18T06:52:37.066Z,4.93
2023-03-18T06:55:06.391Z,5.47
2023-03-18T06:57:36.008Z,6.40
2023-03-18T07:00:04.995Z,5.40
2023-03-18T07:02:33.574Z,5.70
2023-03-18T07:05:01.951Z,4.97
2023-03-18T07:07:30.301Z,5.10
2023-03-18T07:09:59.171Z,6.10
2023-03-18T07:12:28.572Z,5.73
2023-03-18T07:14:58.297Z,5.50
2023-03-18T07:17:26.530Z,4.40
2023-03-18T07:19:54.728Z,4.87
2023-03-18T07:22:23.293Z,4.80
2023-03-18T07:24:52.309Z,4.80
2023-03-18T07:27:20.680Z,5.37
2023-03-18T07:29:48.952Z,4.87
2023-03-18T07:32:19.747Z,6.30
2023-03-18T07:34:48.718Z,4.30
2023-03-18T07:37:18.019Z,4.23
2023-03-18T07:39:46.793Z,4.03
2023-03-18T07:42:15.327Z,4.33
2023-03-18T07:44:43.587Z,4.33
2023-03-18T07:47:12.016Z,4.43
2023-03-18T07:49:42.486Z,4.83
2023-03-18T07:52:12.194Z,4.00
2023-03-18T07:54:40.455Z,3.60
2023-03-18T07:57:08.750Z,3.90
2023-03-18T07:59:37.577Z,4.37
2023-03-18T08:02:08.181Z,3.53
2023-03-18T08:04:36.611Z,3.50
2023-03-18T08:07:06.329Z,4.23
2023-03-18T08:09:34.633Z,2.87
2023-03-18T08:12:02.958Z,3.53
2023-03-18T08:14:31.252Z,3.13
2023-03-18T08:16:59.502Z,2.50
2023-03-18T08:19:28.160Z,2.33
2023-03-18T08:21:57.532Z,2.80
2023-03-18T08:24:27.501Z,2.50
2023-03-18T08:26:55.757Z,2.10
2023-03-18T08:29:23.996Z,2.33
2023-03-18T08:31:52.459Z,2.20
2023-03-18T08:34:20.746Z,2.27
2023-03-18T08:36:48.975Z,2.23
2023-03-18T08:39:17.680Z,2.50
2023-03-18T08:41:47.372Z,4.30
2023-03-18T08:44:16.463Z,2.53
2023-03-18T08:46:44.683Z,2.50
2023-03-18T08:49:14.028Z,2.60
2023-03-18T08:51:42.348Z,1.60
2023-03-18T08:54:10.639Z,2.20
2023-03-18T08:56:39.078Z,1.97
2023-03-18T08:59:08.690Z,2.03
2023-03-18T09:01:37.040Z,2.00
2023-03-18T09:04:05.469Z,1.50
2023-03-18T09:06:33.765Z,1.77
2023-03-18T09:09:01.997Z,1.30
2023-03-18T09:11:30.229Z,1.73
2023-03-18T09:13:58.656Z,1.90
2023-03-18T09:16:28.723Z,1.90
2023-03-18T09:18:57.014Z,1.40
2023-03-18T09:21:25.351Z,1.93
2023-03-18T09:23:53.565Z,1.40
2023-03-18T09:26:22.550Z,1.33
2023-03-18T09:28:50.806Z,1.60
2023-03-18T09:31:19.307Z,1.37
2023-03-18T09:33:49.344Z,1.97
2023-03-18T09:36:18.135Z,1.60
2023-03-18T09:38:46.409Z,1.60
2023-03-18T09:41:23.569Z,1.47
2023-03-18T09:43:58.248Z,1.53
2023-03-18T09:46:34.484Z,1.50
2023-03-18T09:49:11.206Z,1.60
2023-03-18T09:51:46.064Z,1.60
2023-03-18T09:54:17.246Z,1.30
2023-03-18T09:56:46.920Z,1.53
2023-03-18T09:59:18.375Z,1.40
2023-03-18T10:01:48.293Z,1.23
2023-03-18T10:04:22.226Z,1.27
2023-03-18T10:06:52.332Z,1.47
2023-03-18T10:09:22.644Z,1.30
2023-03-18T10:11:52.288Z,1.60
2023-03-18T10:14:23.090Z,1.20
2023-03-18T10:16:58.263Z,1.00
2023-03-18T10:19:28.789Z,1.70
2023-03-18T10:22:03.549Z,1.30
2023-03-18T10:24:34.986Z,1.10
2023-03-18T10:27:08.806Z,1.20
2023-03-18T10:29:42.586Z,0.80
2023-03-18T10:32:15.075Z,1.23
2023-03-18T10:34:51.249Z,1.07
2023-03-18T10:37:21.015Z,1.10
2023-03-18T10:39:50.131Z,1.40
2023-03-18T10:42:21.708Z,1.10
2023-03-18T10:44:50.790Z,1.30
2023-03-18T10:47:23.368Z,1.33
2023-03-18T10:50:02.356Z,1.50
2023-03-18T10:52:35.281Z,1.60
2023-03-18T10:55:04.844Z,1.47
2023-03-18T10:57:33.855Z,1.10
2023-03-18T11:00:02.109Z,1.30
2023-03-18T11:02:32.573Z,1.03
2023-03-18T11:05:05.707Z,1.30
2023-03-18T11:07:33.953Z,1.17
2023-03-18T11:10:13.193Z,1.57
2023-03-18T11:12:42.133Z,1.50
2023-03-18T11:15:12.888Z,2.00
2023-03-18T11:17:41.696Z,2.50
2023-03-18T11:20:22.083Z,2.80
2023-03-18T11:22:52.234Z,2.07
2023-03-18T11:25:24.071Z,2.80
2023-03-18T11:27:53.757Z,3.10
2023-03-18T11:30:33.987Z,2.50
2023-03-18T11:33:05.726Z,2.80
2023-03-18T11:35:39.045Z,2.30
2023-03-18T11:38:07.767Z,2.83
2023-03-18T11:40:36.045Z,2.20
2023-03-18T11:43:05.385Z,2.57
2023-03-18T11:45:37.265Z,2.83
2023-03-18T11:48:06.866Z,2.70
2023-03-18T11:50:41.856Z,2.57
2023-03-18T11:53:12.670Z,2.57
2023-03-18T11:55:43.254Z,2.30
2023-03-18T11:58:30.155Z,2.60
2023-03-18T12:01:03.396Z,2.83
2023-03-18T12:03:50.717Z,2.43
2023-03-18T12:06:23.251Z,3.33
2023-03-18T12:08:54.741Z,2.60
2023-03-18T12:11:25.406Z,2.30
2023-03-18T12:13:57.502Z,2.80
2023-03-18T12:16:33.297Z,2.43
2023-03-18T12:19:08.485Z,2.90
2023-03-18T12:21:52.729Z,2.60
2023-03-18T12:24:34.477Z,2.70
2023-03-18T12:27:06.837Z,2.77
2023-03-18T12:29:42.676Z,2.40
2023-03-18T12:32:18.309Z,3.00
2023-03-18T12:34:53.115Z,3.07
2023-03-18T12:37:32.020Z,3.60
2023-03-18T12:40:07.968Z,3.27
2023-03-18T12:42:47.944Z,2.77
2023-03-18T12:45:18.427Z,3.10
2023-03-18T12:47:49.147Z,2.97
2023-03-18T12:50:19.927Z,2.33
2023-03-18T12:52:52.096Z,2.70
2023-03-18T12:55:22.706Z,3.07
2023-03-18T12:57:52.489Z,2.77
2023-03-18T13:00:24.540Z,3.07
2023-03-18T13:02:57.026Z,3.13
2023-03-18T13:05:29.369Z,3.67
2023-03-18T13:08:24.269Z,2.70
2023-03-18T13:10:57.543Z,3.70
2023-03-18T13:13:27.819Z,3.80
2023-03-18T13:15:56.285Z,2.77
2023-03-18T13:18:27.241Z,3.10
2023-03-18T13:20:58.691Z,2.80
2023-03-18T13:23:37.119Z,3.40
2023-03-18T13:26:10.723Z,2.77
2023-03-18T13:29:00.127Z,3.50
2023-03-18T13:31:33.324Z,2.90
2023-03-18T13:34:15.544Z,3.03
2023-03-18T13:37:01.965Z,2.80
2023-03-18T13:39:39.228Z,3.20
2023-03-18T13:42:22.948Z,2.77
2023-03-18T13:44:56.680Z,2.70
2023-03-18T13:47:25.954Z,2.60
2023-03-18T13:50:00.554Z,2.63
2023-03-18T13:52:31.747Z,2.50
2023-03-18T13:55:07.300Z,3.07
2023-03-18T13:57:37.024Z,3.10
2023-03-18T14:00:23.619Z,2.47
2023-03-18T14:03:04.358Z,1.90
2023-03-18T14:05:37.337Z,2.27
2023-03-18T14:08:07.238Z,1.93
2023-03-18T14:10:36.965Z,2.13
2023-03-18T14:13:20.312Z,2.40
2023-03-18T14:15:48.596Z,2.30
2023-03-18T14:18:24.805Z,1.90
2023-03-18T14:20:55.051Z,2.17
2023-03-18T14:23:30.872Z,1.60
2023-03-18T14:26:03.836Z,1.73
2023-03-18T14:28:43.290Z,1.73
2023-03-18T14:31:15.978Z,1.70
2023-03-18T14:33:58.740Z,2.07
2023-03-18T14:36:41.658Z,1.80
2023-03-18T14:39:10.830Z,2.13
2023-03-18T14:41:43.043Z,2.00
2023-03-18T14:44:21.458Z,2.73
2023-03-18T14:46:51.752Z,2.23
2023-03-18T14:49:36.343Z,2.10
2023-03-18T14:52:07.711Z,2.03
2023-03-18T14:54:43.764Z,1.70
2023-03-18T14:57:13.510Z,1.70
2023-03-18T14:59:50.572Z,1.93
2023-03-18T15:02:24.535Z,1.70
2023-03-18T15:04:54.686Z,1.63
2023-03-18T15:07:23.254Z,1.67
2023-03-18T15:09:52.400Z,1.90
2023-03-18T15:12:29.069Z,1.40
2023-03-18T15:14:57.651Z,1.47
2023-03-18T15:17:28.328Z,1.63
2023-03-18T15:20:00.271Z,1.43
2023-03-18T15:22:29.930Z,1.37
2023-03-18T15:25:01.382Z,1.70
2023-03-18T15:27:32.993Z,1.70
2023-03-18T15:30:02.244Z,1.23
2023-03-18T15:32:31.511Z,1.33
2023-03-18T15:35:08.485Z,1.43
2023-03-18T15:37:40.555Z,1.50
2023-03-18T15:40:18.557Z,1.43
2023-03-18T15:42:48.626Z,1.50
2023-03-18T15:45:19.336Z,1.50
2023-03-18T15:47:47.901Z,1.50
2023-03-18T15:50:26.120Z,2.00
2023-03-18T15:53:03.171Z,1.60
2023-03-18T15:55:34.362Z,1.20
2023-03-18T15:58:05.636Z,1.30
2023-03-18T16:00:34.391Z,1.47
2023-03-18T16:03:02.738Z,1.30
2023-03-18T16:05:31.036Z,1.70
2023-03-18T16:07:59.325Z,1.73
2023-03-18T16:10:27.834Z,1.30
2023-03-18T16:12:59.160Z,1.93
2023-03-18T16:15:29.820Z,1.50
2023-03-18T16:17:58.189Z,2.23
2023-03-18T16:20:27.563Z,1.80
2023-03-18T16:22:55.858Z,1.30
2023-03-18T16:25:24.720Z,1.57
2023-03-18T16:27:53.843Z,1.63
2023-03-18T16:30:24.493Z,1.70
2023-03-18T16:32:54.247Z,1.57
2023-03-18T16:35:23.219Z,1.47
2023-03-18T16:37:53.259Z,1.53
2023-03-18T16:40:22.577Z,1.60
2023-03-18T16:42:51.128Z,1.63
2023-03-18T16:45:22.249Z,1.30
2023-03-18T16:47:52.049Z,1.60
2023-03-18T16:50:25.910Z,1.20
2023-03-18T16:52:54.814Z,1.20
2023-03-18T16:55:23.443Z,1.60
2023-03-18T16:57:52.676Z,1.40
2023-03-18T17:00:22.835Z,1.50
2023-03-18T17:02:52.489Z,1.60
2023-03-18T17:05:22.328Z,1.50
2023-03-18T17:07:52.368Z,1.83
2023-03-18T17:10:21.373Z,1.60
2023-03-18T17:12:51.348Z,1.60
2023-03-18T17:15:20.862Z,1.70
2023-03-18T17:17:49.407Z,2.13
2023-03-18T17:20:19.243Z,2.70
2023-03-18T17:22:47.525Z,2.67
2023-03-18T17:25:17.473Z,2.20
2023-03-18T17:27:47.517Z,2.30
2023-03-18T17:30:20.174Z,2.13
2023-03-18T17:32:48.561Z,1.80
2023-03-18T17:35:17.872Z,2.30
2023-03-18T17:37:46.228Z,2.30
2023-03-18T17:40:15.408Z,2.23
2023-03-18T17:42:45.304Z,2.00
2023-03-18T17:45:20.849Z,2.10
2023-03-18T17:47:50.179Z,1.80
2023-03-18T17:50:18.815Z,1.67
2023-03-18T17:52:48.612Z,3.07
2023-03-18T17:55:17.739Z,3.30
2023-03-18T17:57:47.987Z,4.03
2023-03-18T18:00:17.912Z,3.90
2023-03-18T18:02:46.562Z,2.90
2023-03-18T18:05:16.159Z,4.00
2023-03-18T18:07:45.830Z,4.63
2023-03-18T18:10:15.471Z,2.77
2023-03-18T18:12:44.609Z,2.47
2023-03-18T18:15:20.294Z,3.23
2023-03-18T18:17:49.087Z,2.47
2023-03-18T18:20:17.878Z,3.00
2023-03-18T18:22:48.322Z,2.97
2023-03-18T18:25:20.095Z,2.80
2023-03-18T18:27:48.386Z,3.27
2023-03-18T18:30:17.628Z,3.53
2023-03-18T18:32:47.691Z,4.40
2023-03-18T18:35:17.209Z,2.90
2023-03-18T18:37:45.968Z,2.83
2023-03-18T18:40:16.240Z,2.10
2023-03-18T18:42:45.098Z,2.50
2023-03-18T18:45:17.994Z,2.90
2023-03-18T18:47:47.681Z,2.33
2023-03-18T18:50:17.526Z,2.20
2023-03-18T18:52:45.968Z,2.47
2023-03-18T18:55:14.268Z,2.60
2023-03-18T18:57:43.315Z,2.30
2023-03-18T19:00:17.489Z,2.30
2023-03-18T19:02:47.218Z,2.17
2023-03-18T19:05:17.624Z,2.93
2023-03-18T19:07:46.527Z,2.30
2023-03-18T19:10:15.280Z,2.47
2023-03-18T19:12:44.219Z,2.90
2023-03-18T19:15:15.435Z,2.60
2023-03-18T19:17:45.148Z,2.30
2023-03-18T19:20:23.080Z,1.80
2023-03-18T19:22:53.064Z,2.70
2023-03-18T19:25:21.554Z,2.10
2023-03-18T19:27:49.940Z,2.10
2023-03-18T19:30:24.517Z,2.27
2023-03-18T19:32:55.422Z,2.63
2023-03-18T19:35:27.224Z,2.53
2023-03-18T19:38:00.420Z,2.70
2023-03-18T19:40:31.243Z,2.17
2023-03-18T19:42:59.621Z,2.10
2023-03-18T19:45:27.862Z,2.23
2023-03-18T19:47:56.191Z,2.50
2023-03-18T19:50:26.822Z,2.40
2023-03-18T19:52:56.722Z,2.20
2023-03-18T19:55:26.830Z,3.00
2023-03-18T19:57:55.516Z,2.10
2023-03-18T20:00:25.545Z,2.50
2023-03-18T20:02:54.035Z,2.40
2023-03-18T20:05:23.584Z,2.23
2023-03-18T20:07:53.569Z,2.17
2023-03-18T20:10:22.242Z,2.27
2023-03-18T20:12:52.752Z,2.27
2023-03-18T20:15:22.812Z,2.50
2023-03-18T20:17:51.575Z,2.50
2023-03-18T20:20:20.528Z,1.97
2023-03-18T20:22:52.431Z,2.13
2023-03-18T20:25:23.669Z,2.27
2023-03-18T20:27:55.553Z,2.10
2023-03-18T20:30:28.206Z,2.13
2023-03-18T20:32:56.975Z,2.20
2023-03-18T20:35:27.081Z,2.30
2023-03-18T20:37:55.955Z,1.90
2023-03-18T20:40:26.866Z,1.90
2023-03-18T20:42:55.338Z,2.07
2023-03-18T20:45:25.614Z,2.10
2023-03-18T20:47:53.865Z,3.03
2023-03-18T20:50:23.670Z,2.60
2023-03-18T20:52:52.351Z,3.20
2023-03-18T20:55:21.917Z,2.87
2023-03-18T20:57:52.847Z,3.27
2023-03-18T21:00:23.105Z,2.60
2023-03-18T21:02:52.323Z,3.20
2023-03-18T21:05:20.934Z,2.27
2023-03-18T21:07:49.531Z,2.87
2023-03-18T21:10:18.772Z,2.83
2023-03-18T21:12:47.414Z,2.27
2023-03-18T21:15:18.349Z,3.00
2023-03-18T21:17:46.764Z,2.67
2023-03-18T21:20:22.042Z,2.40
2023-03-18T21:22:54.346Z,3.03
2023-03-18T21:25:23.333Z,3.17
2023-03-18T21:27:52.583Z,3.03
2023-03-18T21:30:25.449Z,2.83
2023-03-18T21:32:53.767Z,3.20
2023-03-18T21:35:23.154Z,3.13
2023-03-18T21:37:51.652Z,3.10
2023-03-18T21:40:21.574Z,3.63
2023-03-18T21:42:50.335Z,4.20
2023-03-18T21:45:19.353Z,3.63
2023-03-18T21:47:48.936Z,4.00
2023-03-18T21:50:26.822Z,3.03
2023-03-18T21:52:56.205Z,2.80
2023-03-18T21:55:24.656Z,2.73
2023-03-18T21:57:52.862Z,3.10
2023-03-18T22:00:22.395Z,4.73
2023-03-18T22:02:52.027Z,2.80
2023-03-18T22:05:21.696Z,2.80
2023-03-18T22:07:50.835Z,3.17
2023-03-18T22:10:20.341Z,3.60
2023-03-18T22:12:48.568Z,2.73
2023-03-18T22:15:34.890Z,2.90
2023-03-18T22:18:04.786Z,2.67
2023-03-18T22:20:34.696Z,3.07
2023-03-18T22:23:03.094Z,3.00
2023-03-18T22:25:32.894Z,2.90
2023-03-18T22:28:01.652Z,3.40
2023-03-18T22:30:31.181Z,3.90
2023-03-18T22:33:00.310Z,4.33
2023-03-18T22:35:31.320Z,3.50
2023-03-18T22:37:59.843Z,4.50
2023-03-18T22:40:28.895Z,3.67
2023-03-18T22:42:57.937Z,3.07
2023-03-18T22:45:27.010Z,3.30
2023-03-18T22:47:56.699Z,3.77
2023-03-18T22:50:26.017Z,2.97
2023-03-18T22:53:02.392Z,3.20
2023-03-18T22:55:33.827Z,2.97
2023-03-18T22:58:02.288Z,2.93
2023-03-18T23:00:34.544Z,4.27
2023-03-18T23:03:02.968Z,3.60
2023-03-18T23:05:32.765Z,2.50
2023-03-18T23:08:02.492Z,3.50
2023-03-18T23:10:30.851Z,2.80
2023-03-18T23:12:59.116Z,2.60
2023-03-18T23:15:27.372Z,3.23
2023-03-18T23:17:55.695Z,2.70
2023-03-18T23:20:23.884Z,3.30
2023-03-18T23:22:52.254Z,3.00
2023-03-18T23:25:21.943Z,3.23
2023-03-18T23:27:50.170Z,2.80
2023-03-18T23:30:18.608Z,2.67
2023-03-18T23:32:47.008Z,3.60
2023-03-18T23:35:15.376Z,3.40
2023-03-18T23:37:43.764Z,3.07
2023-03-18T23:40:12.698Z,2.90
2023-03-18T23:42:42.329Z,3.10
2023-03-18T23:45:11.080Z,2.63
2023-03-18T23:47:39.416Z,3.00
2023-03-18T23:50:08.033Z,3.43
2023-03-18T23:52:36.863Z,3.00
2023-03-18T23:55:12.250Z,3.43
2023-03-18T23:57:48.080Z,3.83
